weather.gov     
National Weather Service

Terminal Aerodrome Forecast
NWS Homepage
This page is being discontinued on March 12, 2014.
The same data is available at this site. Please update your bookmarks.
Thank you, and we apologize for the inconvenience.
Please send an email to SR-SRH.Webmaster@noaa.gov with any concerns.


Current Version
Previous Version:    01  02  03  04  05  06  07  08  09  10  11  12  13  14  15  16  17  18  19  20  21  22  23  24  25  26  27  28  29  
[Printable]
736
FTUS44 KOHX 231100
TAFCSV
TAF
KCSV 231132Z 2312/2412 14006KT P6SM VCSH OVC015
     FM231400 13012G22KT 4SM -SHRA OVC009
     FM231800 15014G24KT 2SM -RA BR VCTS OVC006CB
     FM240000 18014G24KT 4SM -DZ BR BKN006 OVC011
     FM240600 19014G26KT 5SM -DZ SCT006 OVC011
      TEMPO 2408/2412 2SM -DZ BKN006 OVC011=


U.S. Dept. of Commerce
NOAA National Weather Service
1325 East West Highway
Silver Spring, MD 20910
E-mail: w-nws.webmaster@noaa.gov
Page last modified: May 16, 2007
NATIONAL WEATHER SERVICE: for Safety, for Work, for Fun - FOR LIFE